USCGC Tern — NEOT — position and weather

sailwx.info

Track history (hours):
 
Tides and Currents Weather Stations Pressure Air Temp Water Temp Dewpoint Dewpoint Depression Visibility Wind Speed Wind Dir Waves Ship Positions

USCGC Tern

Last reported at 2016-Jan-25 00:33 UTC. Time now 2016-Feb-10 20:05 UTC.
Position N 37°49' W 122°23'.
Warning: this ship's position is 16 days out of date.

Length 26 m; draft 3 m.

Type: Military. MMSI: 366999711.

Date/timePositionNaut miles runAvg speedWind from/ knotsBaromVisibWave heightAir tempDewpointWater temp
2016-Jan-25 00:33N 37°49' W 122°23'5 4.6
2016-Jan-24 23:33N 37°50' W 122°28'1 0.9
2016-Jan-24 22:32N 37°51' W 122°28'0 0.0
2016-Jan-24 21:32N 37°51' W 122°28'0 0.0
2016-Jan-24 20:32N 37°51' W 122°28'4 3.8
2016-Jan-24 19:33N 37°55' W 122°27'6 6.4
2016-Jan-24 18:33N 38°01' W 122°24'9 8.3
2016-Jan-24 17:31N 38°04' W 122°14'1 0.6
2016-Jan-24 16:32N 38°04' W 122°15'1111.1
2016-Jan-24 15:33N 37°58' W 122°27'  
Track history (hours):
 
Tides and Currents Weather Stations Pressure Air Temp Water Temp Dewpoint Dewpoint Depression Visibility Wind Speed Wind Dir Waves Ship Positions

USCGC Tern

Last reported at 2016-Jan-25 00:33 UTC. Time now 2016-Feb-10 20:05 UTC.
Position N 37°49' W 122°23'.
Warning: this ship's position is 16 days out of date.

Length 26 m; draft 3 m.

Type: Military. MMSI: 366999711.

Date/timePositionNaut miles runAvg speedWind from/ knotsBaromVisibWave heightAir tempDewpointWater temp
2016-Jan-25 00:33N 37°49' W 122°23'5 4.6
2016-Jan-24 23:33N 37°50' W 122°28'1 0.9
2016-Jan-24 22:32N 37°51' W 122°28'0 0.0
2016-Jan-24 21:32N 37°51' W 122°28'0 0.0
2016-Jan-24 20:32N 37°51' W 122°28'4 3.8
2016-Jan-24 19:33N 37°55' W 122°27'6 6.4
2016-Jan-24 18:33N 38°01' W 122°24'9 8.3
2016-Jan-24 17:31N 38°04' W 122°14'1 0.6
2016-Jan-24 16:32N 38°04' W 122°15'1111.1
2016-Jan-24 15:33N 37°58' W 122°27'  

Dump ship's entire track history